createdAt,value
2023-04-18T09:49:55.954Z,98.60
2023-04-18T09:52:26.008Z,99.90
2023-04-18T09:54:58.654Z,99.90
2023-04-18T09:57:30.624Z,99.90
2023-04-18T10:00:08.818Z,99.90
2023-04-18T10:03:04.811Z,99.90
2023-04-18T10:05:34.738Z,99.90
2023-04-18T10:08:04.380Z,99.90
2023-04-18T10:10:32.116Z,99.90
2023-04-18T10:13:01.004Z,99.90
2023-04-18T10:15:29.847Z,99.90
2023-04-18T10:18:24.697Z,99.90
2023-04-18T10:21:03.341Z,99.90
2023-04-18T10:23:37.826Z,99.90
2023-04-18T10:26:11.483Z,99.90
2023-04-18T10:28:58.876Z,99.90
2023-04-18T10:31:29.571Z,99.90
2023-04-18T10:34:05.388Z,99.90
2023-04-18T10:36:33.065Z,99.90
2023-04-18T10:39:05.821Z,99.90
2023-04-18T10:41:33.713Z,99.90
2023-04-18T10:44:18.162Z,99.90
2023-04-18T10:46:48.302Z,99.90
2023-04-18T10:49:31.990Z,99.90
2023-04-18T10:52:01.801Z,99.90
2023-04-18T10:54:58.422Z,99.90
2023-04-18T10:57:38.781Z,99.90
2023-04-18T11:00:13.846Z,99.90
2023-04-18T11:02:48.214Z,99.90
2023-04-18T11:05:21.020Z,99.90
2023-04-18T11:07:49.071Z,99.90
2023-04-18T11:10:24.556Z,99.90
2023-04-18T11:12:52.564Z,99.90
2023-04-18T11:15:24.334Z,98.80
2023-04-18T11:18:05.007Z,97.50
2023-04-18T11:20:39.919Z,98.90
2023-04-18T11:23:17.171Z,99.90
2023-04-18T11:25:45.000Z,99.90
2023-04-18T11:28:13.646Z,96.00
2023-04-18T11:30:41.600Z,97.30
2023-04-18T11:33:12.649Z,98.90
2023-04-18T11:35:44.735Z,94.20
2023-04-18T11:38:13.554Z,93.60
2023-04-18T11:40:50.096Z,93.90
2023-04-18T11:43:25.011Z,91.00
2023-04-18T11:45:59.793Z,90.40
2023-04-18T11:48:45.195Z,89.50
2023-04-18T11:51:32.310Z,88.50
2023-04-18T11:53:59.215Z,91.70
2023-04-18T11:56:26.324Z,91.80
2023-04-18T11:58:53.437Z,97.60
2023-04-18T12:01:22.389Z,93.80
2023-04-18T12:04:06.606Z,99.50
2023-04-18T12:06:50.510Z,99.90
2023-04-18T12:09:17.886Z,99.90
2023-04-18T12:11:56.289Z,99.90
2023-04-18T12:14:23.249Z,99.90
2023-04-18T12:16:50.874Z,99.90
2023-04-18T12:19:20.555Z,99.90
2023-04-18T12:22:00.519Z,99.90
2023-04-18T12:24:29.032Z,99.90
2023-04-18T12:26:58.110Z,99.90
2023-04-18T12:29:27.426Z,99.90
2023-04-18T12:31:54.828Z,99.90
2023-04-18T12:34:21.901Z,99.90
2023-04-18T12:36:49.335Z,99.90
2023-04-18T12:39:16.422Z,99.90
2023-04-18T12:41:44.297Z,99.90
2023-04-18T12:44:11.583Z,99.90
2023-04-18T12:46:38.760Z,99.90
2023-04-18T12:49:05.904Z,99.90
2023-04-18T12:51:33.207Z,99.90
2023-04-18T12:54:00.657Z,99.90
2023-04-18T12:56:27.790Z,99.90
2023-04-18T12:58:54.757Z,99.90
2023-04-18T13:01:22.032Z,99.90
2023-04-18T13:04:10.864Z,99.90
2023-04-18T13:06:40.073Z,99.90
2023-04-18T13:09:07.476Z,99.90
2023-04-18T13:11:49.066Z,99.90
2023-04-18T13:14:36.463Z,99.90
2023-04-18T13:17:20.228Z,98.90
2023-04-18T13:20:00.109Z,99.90
2023-04-18T13:22:48.909Z,99.90
2023-04-18T13:25:29.273Z,99.90
2023-04-18T13:28:03.016Z,99.50
2023-04-18T13:30:35.774Z,99.50
2023-04-18T13:33:14.565Z,99.90
2023-04-18T13:35:44.262Z,99.90
2023-04-18T13:39:02.793Z,99.90
2023-04-18T13:41:13.924Z,99.90
2023-04-18T13:43:55.636Z,99.90
2023-04-18T13:46:37.362Z,99.60
2023-04-18T13:49:04.576Z,97.10
2023-04-18T13:51:43.914Z,99.90
2023-04-18T13:54:16.034Z,99.90
2023-04-18T13:56:56.591Z,99.90
2023-04-18T13:59:39.703Z,99.90
2023-04-18T14:02:34.662Z,99.90
2023-04-18T14:05:04.950Z,99.00
2023-04-18T14:07:46.352Z,99.30
2023-04-18T14:10:26.240Z,98.90
2023-04-18T14:12:56.695Z,99.50
2023-04-18T14:15:38.029Z,98.70
2023-04-18T14:18:10.507Z,90.50
2023-04-18T14:20:38.971Z,90.70
2023-04-18T14:23:11.924Z,88.20
2023-04-18T14:28:35.647Z,79.40
2023-04-18T14:31:27.913Z,81.70
2023-04-18T14:34:05.242Z,82.50
2023-04-18T14:36:40.374Z,80.60
2023-04-18T14:39:25.328Z,78.70
2023-04-18T14:42:17.183Z,80.60
2023-04-18T14:45:20.958Z,80.80
2023-04-18T14:47:55.933Z,85.40
2023-04-18T14:50:27.913Z,84.10
2023-04-18T14:52:55.046Z,85.30
2023-04-18T14:55:29.721Z,87.70
2023-04-18T14:58:01.371Z,91.30
2023-04-18T15:00:38.343Z,88.30
2023-04-18T15:03:08.302Z,91.30
2023-04-18T15:05:50.693Z,92.10
2023-04-18T15:08:32.664Z,89.50
2023-04-18T15:11:18.903Z,87.90
2023-04-18T15:14:13.367Z,87.20
2023-04-18T15:17:07.631Z,90.70
2023-04-18T15:20:10.879Z,96.30
2023-04-18T15:22:41.576Z,86.20
2023-04-18T15:25:18.681Z,90.40
2023-04-18T15:27:59.647Z,94.10
2023-04-18T15:30:35.605Z,97.20
2023-04-18T15:33:18.265Z,94.50
2023-04-18T15:35:53.955Z,93.70
2023-04-18T15:38:27.922Z,92.40
2023-04-18T15:40:59.047Z,96.70
2023-04-18T15:43:38.542Z,98.80
2023-04-18T15:46:05.651Z,99.70
2023-04-18T15:51:55.753Z,98.90
2023-04-18T15:54:26.212Z,98.60
2023-04-18T15:57:00.760Z,98.70
2023-04-18T15:59:37.183Z,99.90
2023-04-18T16:02:10.378Z,99.90
2023-04-18T16:04:51.547Z,99.90
2023-04-18T16:07:18.856Z,99.90
2023-04-18T16:10:08.583Z,99.90
2023-04-18T16:12:56.176Z,98.20
2023-04-18T16:15:27.294Z,96.10
2023-04-18T16:17:58.970Z,98.00
2023-04-18T16:20:38.069Z,96.30
2023-04-18T16:23:28.668Z,98.60
2023-04-18T16:26:03.356Z,99.80
2023-04-18T16:28:39.223Z,99.90
2023-04-18T16:31:10.160Z,99.90
2023-04-18T16:33:37.285Z,99.90
2023-04-18T16:36:05.104Z,99.90
2023-04-18T16:38:32.331Z,99.90
2023-04-18T16:41:01.515Z,99.90
2023-04-18T16:43:30.996Z,99.90
2023-04-18T16:45:59.002Z,99.90
2023-04-18T16:48:42.604Z,99.90
2023-04-18T16:51:17.976Z,99.90
2023-04-18T16:53:46.925Z,99.90
2023-04-18T16:56:24.348Z,99.90
2023-04-18T16:58:55.209Z,99.90
2023-04-18T17:01:33.329Z,99.90
2023-04-18T17:04:19.931Z,99.90
2023-04-18T17:07:10.266Z,99.90
2023-04-18T17:09:45.240Z,99.90
2023-04-18T17:12:22.815Z,99.90
2023-04-18T17:14:51.173Z,99.90
2023-04-18T17:17:28.573Z,99.90
2023-04-18T17:19:56.109Z,99.90
2023-04-18T17:22:23.339Z,99.90
2023-04-18T17:24:50.284Z,99.90
2023-04-18T17:27:19.853Z,99.90
2023-04-18T17:29:48.809Z,99.90
2023-04-18T17:32:16.178Z,99.90
2023-04-18T17:34:53.772Z,99.90
2023-04-18T17:37:24.244Z,99.90
2023-04-18T17:40:05.937Z,99.90
2023-04-18T17:42:44.428Z,99.90
2023-04-18T17:45:46.819Z,99.90
2023-04-18T17:48:16.356Z,99.90
2023-04-18T17:50:59.936Z,99.90
2023-04-18T17:53:27.363Z,99.90
2023-04-18T17:55:55.552Z,99.90
2023-04-18T18:52:43.696Z,99.90
2023-04-18T18:55:11.678Z,99.90
2023-04-18T18:57:38.808Z,99.90
